Time;durP1;ratioP1;P1;durP2;ratioP2;P2;SDS_P1;SDS_P2;PMS_P1;PMS_P2;Temp;Humidity;BMP_temperature;BMP_pressure;BME280_temperature;BME280_humidity;BME280_pressure;Samples;Min_cycle;Max_cycle;Signal;HPM_P1;HPM_P2
2021/09/01 00:01:34;;;;;;;;;27.00;22.00;;;;;;;;5012148;28;46307;-80
2021/09/01 00:03:59;;;;;;;;;25.00;21.67;;;;;;;;5007044;28;45919;-81
2021/09/01 00:06:24;;;;;;;;;29.25;24.00;;;;;;;;5011166;28;45914;-80
2021/09/01 00:08:51;;;;;;;;;26.33;24.00;;;;;;;;5013435;28;45447;-80
2021/09/01 00:11:16;;;;;;;;;28.50;21.25;;;;;;;;5010561;28;45410;-80
2021/09/01 00:13:41;;;;;;;;;25.50;22.75;;;;;;;;5010407;28;45456;-80
2021/09/01 00:16:07;;;;;;;;;26.25;21.50;;;;;;;;5011445;28;45337;-80
2021/09/01 00:18:32;;;;;;;;;18.33;15.33;;;;;;;;5021608;28;45327;-81
2021/09/01 00:20:57;;;;;;;;;26.00;18.67;;;;;;;;4997508;28;47055;-80
2021/09/01 00:23:22;;;;;;;;;22.67;18.33;;;;;;;;5003600;28;45282;-80
2021/09/01 00:25:48;;;;;;;;;25.33;16.00;;;;;;;;5012472;28;45454;-80
2021/09/01 00:28:13;;;;;;;;;24.00;21.50;;;;;;;;5009786;28;45434;-81
2021/09/01 00:30:38;;;;;;;;;27.75;25.00;;;;;;;;5012823;28;45549;-81
2021/09/01 00:33:04;;;;;;;;;31.67;25.00;;;;;;;;5017372;28;45748;-81
2021/09/01 00:35:29;;;;;;;;;25.75;23.75;;;;;;;;5015598;28;45320;-80
2021/09/01 00:37:54;;;;;;;;;24.33;20.33;;;;;;;;5006179;28;45422;-80
2021/09/01 00:40:19;;;;;;;;;29.00;21.33;;;;;;;;5009424;28;45462;-80
2021/09/01 00:42:45;;;;;;;;;26.00;20.33;;;;;;;;5009880;28;45418;-80
2021/09/01 00:45:10;;;;;;;;;29.00;23.33;;;;;;;;5008383;28;45650;-80
2021/09/01 00:47:36;;;;;;;;;27.25;26.25;;;;;;;;5012073;28;45452;-80
2021/09/01 00:50:06;;;;;;;;;26.50;22.50;;;;;;;;5015072;28;46032;-81
2021/09/01 00:52:31;;;;;;;;;26.75;25.25;;;;;;;;4991166;28;45985;-80
2021/09/01 00:54:57;;;;;;;;;30.00;23.25;;;;;;;;5006586;28;45374;-80
2021/09/01 00:57:23;;;;;;;;;24.25;21.00;;;;;;;;4999924;28;45566;-80
2021/09/01 00:59:48;;;;;;;;;25.50;22.00;;;;;;;;5018895;28;45452;-80
2021/09/01 01:02:14;;;;;;;;;28.00;25.50;;;;;;;;5011328;28;45426;-80
2021/09/01 01:04:39;;;;;;;;;28.00;21.50;;;;;;;;4994702;28;45424;-80
2021/09/01 01:07:08;;;;;;;;;28.00;20.67;;;;;;;;5010361;28;45457;-80
2021/09/01 01:09:35;;;;;;;;;24.75;22.25;;;;;;;;4987096;28;46807;-80
2021/09/01 01:12:02;;;;;;;;;29.75;23.25;;;;;;;;4990941;28;45612;-81
2021/09/01 01:14:28;;;;;;;;;27.00;20.75;;;;;;;;4984851;28;45401;-80
2021/09/01 01:16:54;;;;;;;;;27.00;22.00;;;;;;;;4992909;28;45542;-80
2021/09/01 01:19:20;;;;;;;;;26.00;22.00;;;;;;;;4985627;28;46133;-81
2021/09/01 01:21:45;;;;;;;;;23.50;22.00;;;;;;;;4996352;28;45424;-80
2021/09/01 01:24:10;;;;;;;;;23.67;23.33;;;;;;;;4997227;28;45517;-80
2021/09/01 01:26:36;;;;;;;;;27.33;22.67;;;;;;;;5005883;28;44759;-80
2021/09/01 01:29:03;;;;;;;;;28.00;25.00;;;;;;;;4987114;28;47075;-80
2021/09/01 01:31:28;;;;;;;;;31.75;24.00;;;;;;;;4989855;28;45522;-81
2021/09/01 01:33:53;;;;;;;;;25.50;22.50;;;;;;;;4993681;28;45585;-80
2021/09/01 01:36:18;;;;;;;;;27.33;24.00;;;;;;;;4982935;28;45843;-80
2021/09/01 01:38:44;;;;;;;;;31.00;26.33;;;;;;;;4974624;28;47023;-80
2021/09/01 01:41:09;;;;;;;;;25.75;19.75;;;;;;;;4996679;28;45423;-80
2021/09/01 01:43:38;;;;;;;;;29.75;23.75;;;;;;;;4985660;28;45622;-80
2021/09/01 01:46:05;;;;;;;;;27.75;22.50;;;;;;;;4990438;28;45456;-80
2021/09/01 01:48:30;;;;;;;;;22.75;21.00;;;;;;;;4996278;28;45456;-80
2021/09/01 01:50:56;;;;;;;;;26.00;22.67;;;;;;;;4982193;28;45508;-80
2021/09/01 01:53:21;;;;;;;;;25.25;22.00;;;;;;;;4998241;28;45491;-80
2021/09/01 01:55:46;;;;;;;;;28.33;23.00;;;;;;;;4990810;28;45591;-80
2021/09/01 01:58:11;;;;;;;;;27.67;23.67;;;;;;;;4996392;28;46168;-80
2021/09/01 02:00:37;;;;;;;;;30.33;25.00;;;;;;;;4976745;28;45395;-80
2021/09/01 02:03:03;;;;;;;;;30.00;25.00;;;;;;;;4991044;28;45212;-80
2021/09/01 02:05:28;;;;;;;;;24.75;20.00;;;;;;;;4996163;28;45162;-80
2021/09/01 02:07:53;;;;;;;;;30.33;25.67;;;;;;;;4969860;28;47131;-80
2021/09/01 02:10:18;;;;;;;;;30.33;26.00;;;;;;;;5010982;28;45530;-80
2021/09/01 02:12:44;;;;;;;;;28.25;25.50;;;;;;;;5015228;28;45208;-80
2021/09/01 02:15:10;;;;;;;;;37.00;27.25;;;;;;;;5018169;28;45312;-80
2021/09/01 02:17:35;;;;;;;;;29.50;23.00;;;;;;;;5011073;28;45455;-80
2021/09/01 02:20:01;;;;;;;;;27.25;22.75;;;;;;;;5008417;28;45466;-80
2021/09/01 02:22:26;;;;;;;;;28.75;25.25;;;;;;;;5013107;28;45372;-80
2021/09/01 02:24:52;;;;;;;;;36.25;27.75;;;;;;;;5006963;28;45285;-80
2021/09/01 02:27:18;;;;;;;;;33.33;28.67;;;;;;;;5012669;28;45467;-80
2021/09/01 02:29:43;;;;;;;;;30.00;25.75;;;;;;;;5015501;28;45635;-80
2021/09/01 02:32:08;;;;;;;;;31.00;24.50;;;;;;;;5012061;28;45437;-80
2021/09/01 02:34:33;;;;;;;;;31.75;28.75;;;;;;;;4991700;28;45649;-80
2021/09/01 02:36:59;;;;;;;;;29.67;26.67;;;;;;;;5015278;28;46107;-80
2021/09/01 02:39:24;;;;;;;;;30.33;26.00;;;;;;;;5016275;28;45481;-80
2021/09/01 02:41:49;;;;;;;;;30.25;26.50;;;;;;;;5011039;28;45455;-80
2021/09/01 02:44:15;;;;;;;;;42.33;30.33;;;;;;;;5016321;28;45364;-80
2021/09/01 02:46:40;;;;;;;;;35.75;24.25;;;;;;;;5011348;28;45543;-80
2021/09/01 02:49:05;;;;;;;;;34.25;29.75;;;;;;;;4997508;28;45441;-80
2021/09/01 02:51:30;;;;;;;;;31.00;29.00;;;;;;;;5016546;28;45460;-80
2021/09/01 02:53:55;;;;;;;;;32.00;28.33;;;;;;;;5008275;28;45597;-80
2021/09/01 02:56:21;;;;;;;;;34.67;26.67;;;;;;;;5010499;28;45427;-80
2021/09/01 02:58:46;;;;;;;;;31.33;25.33;;;;;;;;5020496;28;45490;-80
2021/09/01 03:01:11;;;;;;;;;35.00;29.33;;;;;;;;5017290;28;45520;-80
2021/09/01 03:03:36;;;;;;;;;32.67;25.67;;;;;;;;5001215;28;45498;-80
2021/09/01 03:06:01;;;;;;;;;32.00;26.00;;;;;;;;5007420;28;46304;-80
2021/09/01 03:08:27;;;;;;;;;29.25;28.75;;;;;;;;5010782;28;45515;-80
2021/09/01 03:10:52;;;;;;;;;31.00;29.00;;;;;;;;5013785;28;45513;-80
2021/09/01 03:13:17;;;;;;;;;32.67;29.00;;;;;;;;5010283;28;45295;-80
2021/09/01 03:15:42;;;;;;;;;31.67;28.33;;;;;;;;5013655;28;45728;-80
2021/09/01 03:18:08;;;;;;;;;31.33;25.00;;;;;;;;5015390;28;45387;-80
2021/09/01 03:20:33;;;;;;;;;28.33;27.33;;;;;;;;5018084;28;46622;-80
2021/09/01 03:22:58;;;;;;;;;32.33;27.00;;;;;;;;5014557;28;45498;-80
2021/09/01 03:25:23;;;;;;;;;26.67;24.00;;;;;;;;5004130;28;45614;-80
2021/09/01 03:27:48;;;;;;;;;29.33;29.00;;;;;;;;5012237;28;45344;-80
2021/09/01 03:30:14;;;;;;;;;33.33;26.67;;;;;;;;5010653;28;45365;-80
2021/09/01 03:32:39;;;;;;;;;31.00;24.75;;;;;;;;5010539;28;45385;-80
2021/09/01 03:35:05;;;;;;;;;29.25;23.50;;;;;;;;5016434;28;47384;-80
2021/09/01 03:37:30;;;;;;;;;29.00;27.50;;;;;;;;5008555;28;45642;-80
2021/09/01 03:39:56;;;;;;;;;29.33;24.33;;;;;;;;5010817;28;45584;-80
2021/09/01 03:42:21;;;;;;;;;28.50;21.50;;;;;;;;5018946;28;45735;-80
2021/09/01 03:44:47;;;;;;;;;31.67;28.33;;;;;;;;5019769;28;46117;-80
2021/09/01 03:47:12;;;;;;;;;27.67;25.67;;;;;;;;5015742;28;45442;-80
2021/09/01 03:49:37;;;;;;;;;31.00;27.33;;;;;;;;5017524;28;45405;-80
2021/09/01 03:52:02;;;;;;;;;32.33;26.67;;;;;;;;5016245;28;45375;-80
2021/09/01 03:54:28;;;;;;;;;29.75;25.25;;;;;;;;5009402;28;45612;-80
2021/09/01 03:56:53;;;;;;;;;26.00;25.00;;;;;;;;5011840;28;45501;-80
2021/09/01 03:59:18;;;;;;;;;29.00;25.75;;;;;;;;5014526;28;45335;-80
2021/09/01 04:01:43;;;;;;;;;26.50;22.75;;;;;;;;4999822;28;45601;-81
2021/09/01 04:04:09;;;;;;;;;35.33;27.00;;;;;;;;5010193;28;45639;-80
2021/09/01 04:06:34;;;;;;;;;32.25;27.00;;;;;;;;5014340;28;45395;-80
2021/09/01 04:08:59;;;;;;;;;29.00;23.00;;;;;;;;5016588;28;45479;-80
2021/09/01 04:11:25;;;;;;;;;25.00;21.25;;;;;;;;5012425;28;45484;-80
2021/09/01 04:13:50;;;;;;;;;26.00;21.00;;;;;;;;5017042;28;46159;-80
2021/09/01 04:16:15;;;;;;;;;30.67;26.67;;;;;;;;5009906;28;45489;-80
2021/09/01 04:18:40;;;;;;;;;26.25;24.00;;;;;;;;5010494;28;45472;-80
2021/09/01 04:21:06;;;;;;;;;31.25;28.25;;;;;;;;5017489;28;45599;-80
2021/09/01 04:23:31;;;;;;;;;37.00;30.00;;;;;;;;5021018;28;45312;-81
2021/09/01 04:25:57;;;;;;;;;36.50;25.50;;;;;;;;5034265;28;45253;-79
2021/09/01 04:28:22;;;;;;;;;29.50;27.75;;;;;;;;5010277;28;45266;-80
2021/09/01 04:30:47;;;;;;;;;23.33;22.00;;;;;;;;5002072;28;45697;-81
2021/09/01 04:33:12;;;;;;;;;28.00;22.25;;;;;;;;5018897;28;45391;-80
2021/09/01 04:35:38;;;;;;;;;32.75;27.50;;;;;;;;5014602;28;45389;-80
2021/09/01 04:38:04;;;;;;;;;34.25;26.00;;;;;;;;4988659;28;45235;-80
2021/09/01 04:40:29;;;;;;;;;29.00;27.75;;;;;;;;5010332;28;45349;-80
2021/09/01 04:42:54;;;;;;;;;35.50;26.00;;;;;;;;5014532;28;45311;-81
2021/09/01 04:45:19;;;;;;;;;30.00;26.67;;;;;;;;5014173;28;45408;-80
2021/09/01 04:47:44;;;;;;;;;33.67;26.33;;;;;;;;5001847;28;45328;-80
2021/09/01 04:50:10;;;;;;;;;32.33;24.67;;;;;;;;5013785;28;45455;-80
2021/09/01 04:52:35;;;;;;;;;30.25;25.50;;;;;;;;5013797;28;46370;-80
2021/09/01 04:55:00;;;;;;;;;27.25;25.50;;;;;;;;5004965;28;45332;-80
2021/09/01 04:57:26;;;;;;;;;27.00;23.75;;;;;;;;5012683;28;45806;-81
2021/09/01 04:59:51;;;;;;;;;25.00;22.25;;;;;;;;4983461;28;45784;-81
2021/09/01 05:02:16;;;;;;;;;30.33;27.33;;;;;;;;5012886;28;46847;-80
2021/09/01 05:04:41;;;;;;;;;30.00;29.67;;;;;;;;5006731;28;45738;-80
2021/09/01 05:07:07;;;;;;;;;30.67;27.33;;;;;;;;5008082;28;45658;-80
2021/09/01 05:09:32;;;;;;;;;32.50;26.75;;;;;;;;5011450;28;45504;-80
2021/09/01 05:11:57;;;;;;;;;33.67;29.33;;;;;;;;5015755;28;46300;-80
2021/09/01 05:14:23;;;;;;;;;29.75;26.75;;;;;;;;5009406;28;45442;-80
2021/09/01 05:16:48;;;;;;;;;30.00;26.00;;;;;;;;5010494;28;45502;-81
2021/09/01 05:19:13;;;;;;;;;35.33;28.67;;;;;;;;5007171;28;45491;-80
2021/09/01 05:21:41;;;;;;;;;26.00;23.50;;;;;;;;5013975;28;46062;-80
2021/09/01 05:24:08;;;;;;;;;30.75;24.25;;;;;;;;4988874;28;45714;-80
2021/09/01 05:26:34;;;;;;;;;30.50;25.00;;;;;;;;5009227;28;45303;-80
2021/09/01 05:29:01;;;;;;;;;31.25;26.25;;;;;;;;5005415;28;45388;-80
2021/09/01 05:31:30;;;;;;;;;25.75;25.00;;;;;;;;5009250;28;45375;-81
2021/09/01 05:33:59;;;;;;;;;28.50;27.50;;;;;;;;5010915;28;45484;-80
2021/09/01 05:36:24;;;;;;;;;32.25;26.00;;;;;;;;5005925;28;45306;-80
2021/09/01 05:38:50;;;;;;;;;30.33;27.00;;;;;;;;4997450;28;45674;-80
2021/09/01 05:41:15;;;;;;;;;28.25;24.50;;;;;;;;5014859;28;46094;-80
2021/09/01 05:43:40;;;;;;;;;25.50;25.00;;;;;;;;5012558;28;45372;-80
2021/09/01 05:46:07;;;;;;;;;36.25;27.25;;;;;;;;5012341;28;45467;-80
2021/09/01 05:48:32;;;;;;;;;32.75;28.00;;;;;;;;5016415;28;45511;-80
2021/09/01 05:50:58;;;;;;;;;33.00;23.25;;;;;;;;5020182;28;45383;-81
2021/09/01 05:53:23;;;;;;;;;21.75;20.00;;;;;;;;5016803;28;45490;-80
2021/09/01 05:55:50;;;;;;;;;27.75;24.00;;;;;;;;5000739;28;45375;-80
2021/09/01 05:58:18;;;;;;;;;29.75;24.50;;;;;;;;4992645;28;45758;-81
2021/09/01 06:00:44;;;;;;;;;31.50;28.00;;;;;;;;5000839;28;47333;-80
2021/09/01 06:03:16;;;;;;;;;30.25;23.50;;;;;;;;4991565;28;45695;-80
2021/09/01 06:05:43;;;;;;;;;33.75;25.50;;;;;;;;5013249;28;45190;-80
2021/09/01 06:08:09;;;;;;;;;31.00;25.25;;;;;;;;5008618;28;45508;-80
2021/09/01 06:10:35;;;;;;;;;26.50;24.50;;;;;;;;5004861;28;45991;-80
2021/09/01 06:13:04;;;;;;;;;31.00;24.75;;;;;;;;5005359;28;45353;-80
2021/09/01 06:15:30;;;;;;;;;29.00;26.50;;;;;;;;5012359;28;45439;-81
2021/09/01 06:17:55;;;;;;;;;32.75;29.25;;;;;;;;5009064;28;45483;-81
2021/09/01 06:20:21;;;;;;;;;30.00;25.75;;;;;;;;5014829;28;45440;-80
2021/09/01 06:22:46;;;;;;;;;33.00;28.25;;;;;;;;5014411;28;45730;-80
2021/09/01 06:25:12;;;;;;;;;31.50;25.50;;;;;;;;5009135;28;45437;-80
2021/09/01 06:27:37;;;;;;;;;15.75;13.00;;;;;;;;4996871;28;45707;-80
2021/09/01 06:30:03;;;;;;;;;27.00;24.00;;;;;;;;5016082;28;45419;-80
2021/09/01 06:32:28;;;;;;;;;27.25;22.50;;;;;;;;4998655;28;45539;-80
2021/09/01 06:34:53;;;;;;;;;30.75;25.50;;;;;;;;5001499;28;45446;-80
2021/09/01 06:37:18;;;;;;;;;31.00;25.67;;;;;;;;5008330;28;45297;-80
2021/09/01 06:39:44;;;;;;;;;26.00;22.75;;;;;;;;5012592;28;45310;-81
2021/09/01 06:42:10;;;;;;;;;29.75;23.75;;;;;;;;5009979;28;45303;-81
2021/09/01 06:44:35;;;;;;;;;29.00;24.25;;;;;;;;5013153;28;45547;-79
2021/09/01 06:47:00;;;;;;;;;31.50;24.00;;;;;;;;5006929;28;45514;-80
2021/09/01 06:49:26;;;;;;;;;30.33;23.00;;;;;;;;5014656;28;45439;-79
2021/09/01 06:51:51;;;;;;;;;29.50;26.25;;;;;;;;5010949;28;45389;-79
2021/09/01 06:54:16;;;;;;;;;28.25;24.00;;;;;;;;5007729;28;45681;-79
2021/09/01 06:56:41;;;;;;;;;31.75;26.00;;;;;;;;5014065;28;45340;-79
2021/09/01 06:59:07;;;;;;;;;32.33;27.67;;;;;;;;5014823;28;45511;-79
2021/09/01 07:01:32;;;;;;;;;34.00;29.00;;;;;;;;5010027;28;45443;-79
2021/09/01 07:03:57;;;;;;;;;30.25;26.50;;;;;;;;5014046;28;45396;-79
2021/09/01 07:06:23;;;;;;;;;34.67;27.67;;;;;;;;4996918;28;45692;-79
2021/09/01 07:08:48;;;;;;;;;31.00;24.00;;;;;;;;5009129;28;45444;-79
2021/09/01 07:11:14;;;;;;;;;25.25;24.25;;;;;;;;5004652;28;45408;-79
2021/09/01 07:13:39;;;;;;;;;30.00;25.33;;;;;;;;5003996;28;45479;-78
2021/09/01 07:16:06;;;;;;;;;27.00;23.00;;;;;;;;5011071;28;45462;-79
2021/09/01 07:18:31;;;;;;;;;23.25;21.25;;;;;;;;5009884;28;45631;-79
2021/09/01 07:20:56;;;;;;;;;28.67;26.33;;;;;;;;5010504;28;45632;-79
2021/09/01 07:23:21;;;;;;;;;25.67;23.33;;;;;;;;5004121;28;45404;-79
2021/09/01 07:25:46;;;;;;;;;31.00;24.33;;;;;;;;5006916;28;45693;-79
2021/09/01 07:28:12;;;;;;;;;26.00;22.67;;;;;;;;5023488;28;46533;-79
2021/09/01 07:30:37;;;;;;;;;25.75;22.00;;;;;;;;5013698;28;45434;-80
2021/09/01 07:33:02;;;;;;;;;31.33;24.67;;;;;;;;5008464;28;45741;-79
2021/09/01 07:35:27;;;;;;;;;30.50;23.50;;;;;;;;4987451;28;45639;-79
2021/09/01 07:37:53;;;;;;;;;30.50;24.75;;;;;;;;4988586;28;47453;-80
2021/09/01 07:40:20;;;;;;;;;27.75;21.25;;;;;;;;5013639;28;46204;-79
2021/09/01 07:42:45;;;;;;;;;24.25;17.25;;;;;;;;5012836;28;45455;-80
2021/09/01 07:45:12;;;;;;;;;22.25;21.75;;;;;;;;5020285;28;45590;-79
2021/09/01 07:47:44;;;;;;;;;28.25;21.75;;;;;;;;5015907;28;45402;-79
2021/09/01 07:50:09;;;;;;;;;30.00;20.50;;;;;;;;5016639;28;45499;-80
2021/09/01 07:52:35;;;;;;;;;24.75;20.50;;;;;;;;5016268;28;45330;-80
2021/09/01 07:55:00;;;;;;;;;25.67;22.33;;;;;;;;5012175;28;48438;-79
2021/09/01 07:57:25;;;;;;;;;20.33;19.33;;;;;;;;5015597;28;45923;-79
2021/09/01 07:59:50;;;;;;;;;25.00;17.67;;;;;;;;5003948;28;45490;-79
2021/09/01 08:02:15;;;;;;;;;31.00;26.67;;;;;;;;4997647;28;45416;-79
2021/09/01 08:04:41;;;;;;;;;27.25;24.25;;;;;;;;5013547;28;45327;-79
2021/09/01 08:07:06;;;;;;;;;24.33;22.33;;;;;;;;5011432;28;45615;-80
2021/09/01 08:09:31;;;;;;;;;28.25;21.75;;;;;;;;5011001;28;45499;-80
2021/09/01 08:11:56;;;;;;;;;24.00;20.33;;;;;;;;4994929;28;45549;-80
2021/09/01 08:14:22;;;;;;;;;24.00;22.67;;;;;;;;5013924;28;45428;-80
2021/09/01 08:16:47;;;;;;;;;27.67;21.67;;;;;;;;5007270;28;46813;-79
2021/09/01 08:19:12;;;;;;;;;26.00;20.67;;;;;;;;5014455;28;45544;-79
2021/09/01 08:21:37;;;;;;;;;27.00;22.67;;;;;;;;5019870;28;45525;-80
2021/09/01 08:24:02;;;;;;;;;29.00;21.75;;;;;;;;5013985;28;45375;-81
2021/09/01 08:26:28;;;;;;;;;24.75;22.00;;;;;;;;4999269;28;47254;-80
2021/09/01 08:28:53;;;;;;;;;32.00;23.75;;;;;;;;4999649;28;45353;-80
2021/09/01 08:31:18;;;;;;;;;24.00;22.00;;;;;;;;5015343;28;45580;-81
2021/09/01 08:33:43;;;;;;;;;24.67;22.33;;;;;;;;5011811;28;45460;-81
2021/09/01 08:36:09;;;;;;;;;28.33;22.67;;;;;;;;5016553;28;45482;-81
2021/09/01 08:38:34;;;;;;;;;30.67;22.00;;;;;;;;5017949;28;45380;-81
2021/09/01 08:41:00;;;;;;;;;26.00;22.00;;;;;;;;5014104;28;45448;-81
2021/09/01 08:43:25;;;;;;;;;18.75;17.25;;;;;;;;5017643;28;45313;-81
2021/09/01 08:45:50;;;;;;;;;21.00;19.50;;;;;;;;5014459;28;46507;-81
2021/09/01 08:48:16;;;;;;;;;24.00;20.50;;;;;;;;5017960;28;45419;-81
2021/09/01 08:50:42;;;;;;;;;23.00;20.25;;;;;;;;5018398;28;45427;-81
2021/09/01 08:53:07;;;;;;;;;20.75;19.25;;;;;;;;4999466;28;45590;-81
2021/09/01 08:55:32;;;;;;;;;24.00;19.75;;;;;;;;5017758;28;46128;-81
2021/09/01 08:57:58;;;;;;;;;24.50;20.50;;;;;;;;5014761;28;46973;-81
2021/09/01 09:00:23;;;;;;;;;27.75;23.75;;;;;;;;5015855;28;45894;-81
2021/09/01 09:02:59;;;;;;;;;25.50;20.75;;;;;;;;5013778;28;45432;-83
2021/09/01 09:05:28;;;;;;;;;28.50;24.00;;;;;;;;5018422;28;45538;-80
2021/09/01 09:07:54;;;;;;;;;23.50;22.00;;;;;;;;5013462;28;45612;-80
2021/09/01 09:10:25;;;;;;;;;22.50;21.50;;;;;;;;5006086;28;45535;-80
2021/09/01 09:13:00;;;;;;;;;25.75;20.00;;;;;;;;5016193;28;45566;-80
2021/09/01 09:15:26;;;;;;;;;24.75;21.75;;;;;;;;5013176;28;46208;-80
2021/09/01 09:17:51;;;;;;;;;27.50;22.50;;;;;;;;5012019;28;45420;-80
2021/09/01 09:20:23;;;;;;;;;23.50;19.25;;;;;;;;5014582;28;45483;-80
2021/09/01 09:22:49;;;;;;;;;21.25;20.25;;;;;;;;5012201;28;45361;-81
2021/09/01 09:25:25;;;;;;;;;29.50;25.25;;;;;;;;5010807;28;45438;-81
2021/09/01 09:27:50;;;;;;;;;28.00;22.25;;;;;;;;5009257;28;45678;-81
2021/09/01 09:30:27;;;;;;;;;28.50;27.75;;;;;;;;5006852;28;45437;-81
2021/09/01 09:32:57;;;;;;;;;26.25;24.25;;;;;;;;5007591;28;45425;-81
2021/09/01 09:35:24;;;;;;;;;23.75;22.00;;;;;;;;5014698;28;45436;-81
2021/09/01 09:38:04;;;;;;;;;21.00;20.00;;;;;;;;5010202;28;45337;-82
2021/09/01 09:40:30;;;;;;;;;25.25;21.75;;;;;;;;5018138;28;45746;-81
2021/09/01 09:42:55;;;;;;;;;22.50;19.50;;;;;;;;5015342;28;45565;-81
2021/09/01 09:45:22;;;;;;;;;20.25;17.75;;;;;;;;5017259;28;45590;-81
2021/09/01 09:47:48;;;;;;;;;24.50;23.00;;;;;;;;5019626;28;45608;-82
2021/09/01 09:50:14;;;;;;;;;18.75;18.75;;;;;;;;5016074;28;45332;-81
2021/09/01 09:52:39;;;;;;;;;21.00;19.00;;;;;;;;5012088;28;45551;-82
2021/09/01 09:55:14;;;;;;;;;20.50;19.00;;;;;;;;5016471;28;45284;-81
2021/09/01 09:57:48;;;;;;;;;18.75;17.75;;;;;;;;5009417;28;45406;-81
2021/09/01 10:00:14;;;;;;;;;21.25;18.75;;;;;;;;5001042;28;45771;-81
2021/09/01 10:02:42;;;;;;;;;24.50;19.75;;;;;;;;5015707;28;46052;-82
2021/09/01 10:05:09;;;;;;;;;19.00;17.00;;;;;;;;5006761;28;46019;-81
2021/09/01 10:07:34;;;;;;;;;18.50;18.50;;;;;;;;5009749;28;45825;-81
2021/09/01 10:10:01;;;;;;;;;23.00;22.25;;;;;;;;5011519;28;45796;-81
2021/09/01 10:12:26;;;;;;;;;22.50;18.00;;;;;;;;5005584;28;45936;-81
2021/09/01 10:14:52;;;;;;;;;19.67;18.33;;;;;;;;5015758;28;46172;-81
2021/09/01 10:17:19;;;;;;;;;21.25;18.50;;;;;;;;5011662;28;45812;-81
2021/09/01 10:19:45;;;;;;;;;18.75;18.75;;;;;;;;5017147;28;45415;-81
2021/09/01 10:22:10;;;;;;;;;19.00;16.25;;;;;;;;5012286;28;45514;-81
2021/09/01 10:24:37;;;;;;;;;17.75;17.50;;;;;;;;5015514;28;45454;-81
2021/09/01 10:27:02;;;;;;;;;20.00;18.00;;;;;;;;5012942;28;45367;-81
2021/09/01 10:29:41;;;;;;;;;16.25;15.50;;;;;;;;5011190;28;45653;-81
2021/09/01 10:32:22;;;;;;;;;20.75;17.75;;;;;;;;5027733;28;45158;-81
2021/09/01 10:34:47;;;;;;;;;19.25;16.25;;;;;;;;5032291;28;47457;-81
2021/09/01 10:37:31;;;;;;;;;20.50;16.75;;;;;;;;5009787;28;45491;-82
2021/09/01 10:39:56;;;;;;;;;20.25;16.50;;;;;;;;5011865;28;45467;-81
2021/09/01 10:42:35;;;;;;;;;16.00;14.00;;;;;;;;5013952;28;45455;-81
2021/09/01 10:45:00;;;;;;;;;18.00;16.00;;;;;;;;5018728;28;45398;-80
2021/09/01 10:47:25;;;;;;;;;19.25;14.75;;;;;;;;5013350;28;45606;-80
2021/09/01 10:49:54;;;;;;;;;19.33;17.67;;;;;;;;5015412;28;45501;-80
2021/09/01 10:52:19;;;;;;;;;16.25;15.50;;;;;;;;5009007;28;45296;-81
2021/09/01 10:54:45;;;;;;;;;21.67;16.33;;;;;;;;5012889;28;45567;-81
2021/09/01 10:57:22;;;;;;;;;19.25;16.50;;;;;;;;5011119;28;45610;-81
2021/09/01 10:59:47;;;;;;;;;14.75;14.25;;;;;;;;5006009;28;45386;-81
2021/09/01 11:02:14;;;;;;;;;17.67;16.00;;;;;;;;5010643;28;45513;-82
2021/09/01 11:04:53;;;;;;;;;19.25;17.00;;;;;;;;5017686;28;45649;-82
2021/09/01 11:07:19;;;;;;;;;8.75;8.00;;;;;;;;5008616;28;45593;-82
2021/09/01 11:09:49;;;;;;;;;16.75;16.75;;;;;;;;5019153;28;45399;-82
2021/09/01 11:12:14;;;;;;;;;17.00;17.00;;;;;;;;5015199;28;45336;-82
2021/09/01 11:14:42;;;;;;;;;17.67;15.00;;;;;;;;5006122;28;45588;-81
2021/09/01 11:17:11;;;;;;;;;15.50;15.00;;;;;;;;4995597;28;45380;-82
2021/09/01 11:19:39;;;;;;;;;17.25;15.25;;;;;;;;5017587;28;45476;-82
2021/09/01 11:22:09;;;;;;;;;19.00;15.75;;;;;;;;5016666;28;45395;-81
2021/09/01 11:24:42;;;;;;;;;20.50;16.75;;;;;;;;5008183;28;45685;-81
2021/09/01 11:27:09;;;;;;;;;14.75;13.25;;;;;;;;5008973;28;45333;-81
2021/09/01 11:29:34;;;;;;;;;14.50;14.50;;;;;;;;4991877;28;45392;-81
2021/09/01 11:32:00;;;;;;;;;16.75;14.00;;;;;;;;5004861;28;45493;-81
2021/09/01 11:34:25;;;;;;;;;20.00;16.00;;;;;;;;5011943;28;45748;-81
2021/09/01 11:36:50;;;;;;;;;19.00;16.33;;;;;;;;5013819;28;45581;-81
2021/09/01 11:39:16;;;;;;;;;17.75;16.75;;;;;;;;5000991;28;45387;-82
2021/09/01 11:41:44;;;;;;;;;20.75;17.25;;;;;;;;5015616;28;45549;-82
2021/09/01 11:44:09;;;;;;;;;15.50;15.00;;;;;;;;4997982;28;47041;-82
2021/09/01 11:46:36;;;;;;;;;16.25;13.75;;;;;;;;5009131;28;45621;-82
2021/09/01 11:49:02;;;;;;;;;17.00;14.75;;;;;;;;5015796;28;45493;-82
2021/09/01 11:51:27;;;;;;;;;18.00;14.00;;;;;;;;5011360;28;45238;-83
2021/09/01 11:53:56;;;;;;;;;21.00;16.75;;;;;;;;5008646;28;46526;-82
2021/09/01 11:56:21;;;;;;;;;14.00;14.00;;;;;;;;4995237;28;46448;-82
2021/09/01 11:58:56;;;;;;;;;16.67;14.67;;;;;;;;5016900;28;45653;-83
2021/09/01 12:01:22;;;;;;;;;15.75;14.00;;;;;;;;5013967;28;45540;-84
2021/09/01 12:03:47;;;;;;;;;15.50;12.75;;;;;;;;5011398;28;45370;-81
2021/09/01 12:06:12;;;;;;;;;10.00;10.00;;;;;;;;5007715;28;45512;-83
2021/09/01 12:08:41;;;;;;;;;15.33;15.33;;;;;;;;5003236;28;45430;-82
2021/09/01 12:11:07;;;;;;;;;11.50;11.00;;;;;;;;5021599;28;45400;-82
2021/09/01 12:13:43;;;;;;;;;15.50;12.25;;;;;;;;5016381;28;46211;-81
2021/09/01 12:16:08;;;;;;;;;18.00;15.75;;;;;;;;5012779;28;45253;-83
2021/09/01 12:18:49;;;;;;;;;14.00;13.25;;;;;;;;5013791;28;45513;-83
2021/09/01 12:21:15;;;;;;;;;12.25;12.25;;;;;;;;5020316;28;45411;-83
2021/09/01 12:23:40;;;;;;;;;10.67;10.33;;;;;;;;5019877;28;45423;-83
2021/09/01 12:26:05;;;;;;;;;16.00;15.00;;;;;;;;5019044;28;45422;-82
2021/09/01 12:28:41;;;;;;;;;11.75;10.00;;;;;;;;5011619;28;45429;-83
2021/09/01 12:31:16;;;;;;;;;21.25;17.25;;;;;;;;5007761;28;45434;-83
2021/09/01 12:33:42;;;;;;;;;17.25;12.25;;;;;;;;5015530;28;45514;-84
2021/09/01 12:36:07;;;;;;;;;18.33;14.00;;;;;;;;4984075;28;45844;-82
2021/09/01 12:38:32;;;;;;;;;17.00;13.75;;;;;;;;5013709;28;45463;-86
2021/09/01 12:40:58;;;;;;;;;16.00;14.33;;;;;;;;5017520;28;45346;-84
2021/09/01 12:43:23;;;;;;;;;16.75;13.50;;;;;;;;4996145;28;48390;-85
2021/09/01 12:45:58;;;;;;;;;8.33;5.00;;;;;;;;5004666;28;45406;-84
2021/09/01 12:48:31;;;;;;;;;15.25;14.50;;;;;;;;4998520;28;45489;-84
2021/09/01 12:50:58;;;;;;;;;15.50;13.75;;;;;;;;5010112;28;45333;-84
2021/09/01 12:53:23;;;;;;;;;14.50;13.50;;;;;;;;5012493;28;45518;-84
2021/09/01 12:55:52;;;;;;;;;12.75;12.25;;;;;;;;5000527;28;46016;-84
2021/09/01 12:58:18;;;;;;;;;13.00;10.75;;;;;;;;5002803;28;45807;-84
2021/09/01 13:00:43;;;;;;;;;13.25;11.75;;;;;;;;5020252;28;45619;-84
2021/09/01 13:03:09;;;;;;;;;14.25;12.25;;;;;;;;5004279;28;45519;-84
2021/09/01 13:05:34;;;;;;;;;12.75;12.75;;;;;;;;5019645;28;45464;-84
2021/09/01 13:08:00;;;;;;;;;15.50;13.25;;;;;;;;5016583;28;45924;-84
2021/09/01 13:10:25;;;;;;;;;16.50;14.25;;;;;;;;5019257;28;45498;-84
2021/09/01 13:12:53;;;;;;;;;15.50;12.25;;;;;;;;4995273;28;47047;-84
2021/09/01 13:15:18;;;;;;;;;13.25;12.00;;;;;;;;5019386;28;45593;-84
2021/09/01 13:17:43;;;;;;;;;12.75;11.00;;;;;;;;5001906;28;45437;-84
2021/09/01 13:20:13;;;;;;;;;18.00;12.25;;;;;;;;5016726;28;45288;-84
2021/09/01 13:22:39;;;;;;;;;15.75;13.75;;;;;;;;5020361;28;46433;-84
2021/09/01 13:25:05;;;;;;;;;16.75;12.50;;;;;;;;5023134;28;45592;-83
2021/09/01 13:27:31;;;;;;;;;12.50;12.00;;;;;;;;5016740;28;45428;-83
2021/09/01 13:29:56;;;;;;;;;13.50;13.00;;;;;;;;5028802;28;44746;-83
2021/09/01 13:32:22;;;;;;;;;12.00;12.00;;;;;;;;5007689;28;47031;-83
2021/09/01 13:34:47;;;;;;;;;16.00;13.25;;;;;;;;5015342;28;45352;-83
2021/09/01 13:37:12;;;;;;;;;17.00;13.67;;;;;;;;5019326;28;45330;-84
2021/09/01 13:39:37;;;;;;;;;14.00;13.33;;;;;;;;4996680;28;45867;-83
2021/09/01 13:42:03;;;;;;;;;14.50;12.75;;;;;;;;4998260;28;47292;-83
2021/09/01 13:44:28;;;;;;;;;17.00;13.00;;;;;;;;4996831;28;45341;-83
2021/09/01 13:46:53;;;;;;;;;12.75;12.00;;;;;;;;5001119;28;45379;-83
2021/09/01 13:49:19;;;;;;;;;11.67;11.67;;;;;;;;5017713;28;45705;-84
2021/09/01 13:51:44;;;;;;;;;12.00;11.25;;;;;;;;5002649;28;47527;-84
2021/09/01 13:54:09;;;;;;;;;11.67;10.33;;;;;;;;5015212;28;45455;-83
2021/09/01 13:56:35;;;;;;;;;11.25;11.00;;;;;;;;5011903;28;45388;-83
2021/09/01 13:59:00;;;;;;;;;14.00;14.00;;;;;;;;5012466;28;45443;-83
2021/09/01 14:01:25;;;;;;;;;19.25;14.25;;;;;;;;5018202;28;45531;-84
2021/09/01 14:03:54;;;;;;;;;10.67;10.67;;;;;;;;5016144;28;45497;-83
2021/09/01 14:06:19;;;;;;;;;12.75;12.25;;;;;;;;4999874;28;45461;-84
2021/09/01 14:08:44;;;;;;;;;14.50;11.75;;;;;;;;5010804;28;45557;-85
2021/09/01 14:11:10;;;;;;;;;16.33;13.00;;;;;;;;5018039;28;46047;-82